sensor_id;sensor_type;location;lat;lon;timestamp;P1;durP1;ratioP1;P2;durP2;ratioP2
27740;SDS011;15134;48.768;9.184;2023-04-24T00:00:05;2.45;;;0.95;;
27740;SDS011;15134;48.768;9.184;2023-04-24T00:02:32;1.70;;;0.70;;
27740;SDS011;15134;48.768;9.184;2023-04-24T00:04:58;2.28;;;0.73;;
27740;SDS011;15134;48.768;9.184;2023-04-24T00:07:28;4.00;;;0.80;;
27740;SDS011;15134;48.768;9.184;2023-04-24T00:09:54;2.33;;;0.60;;
27740;SDS011;15134;48.768;9.184;2023-04-24T00:12:20;2.10;;;0.77;;
27740;SDS011;15134;48.768;9.184;2023-04-24T00:14:46;1.90;;;1.00;;
27740;SDS011;15134;48.768;9.184;2023-04-24T00:17:12;2.90;;;0.80;;
27740;SDS011;15134;48.768;9.184;2023-04-24T00:19:38;2.17;;;0.77;;
27740;SDS011;15134;48.768;9.184;2023-04-24T00:22:04;2.57;;;0.70;;
27740;SDS011;15134;48.768;9.184;2023-04-24T00:24:30;2.42;;;0.80;;
27740;SDS011;15134;48.768;9.184;2023-04-24T00:26:56;2.78;;;0.80;;
27740;SDS011;15134;48.768;9.184;2023-04-24T00:29:22;5.45;;;0.85;;
27740;SDS011;15134;48.768;9.184;2023-04-24T00:31:48;3.63;;;0.53;;
27740;SDS011;15134;48.768;9.184;2023-04-24T00:34:14;1.73;;;0.70;;
27740;SDS011;15134;48.768;9.184;2023-04-24T00:36:39;5.20;;;0.90;;
27740;SDS011;15134;48.768;9.184;2023-04-24T00:39:05;4.53;;;1.00;;
27740;SDS011;15134;48.768;9.184;2023-04-24T00:41:33;2.50;;;0.47;;
27740;SDS011;15134;48.768;9.184;2023-04-24T00:44:00;1.17;;;0.63;;
27740;SDS011;15134;48.768;9.184;2023-04-24T00:46:26;3.37;;;0.80;;
27740;SDS011;15134;48.768;9.184;2023-04-24T00:48:51;2.63;;;0.77;;
27740;SDS011;15134;48.768;9.184;2023-04-24T00:51:17;1.77;;;0.50;;
27740;SDS011;15134;48.768;9.184;2023-04-24T00:53:43;3.37;;;0.70;;
27740;SDS011;15134;48.768;9.184;2023-04-24T00:56:09;3.60;;;1.03;;
27740;SDS011;15134;48.768;9.184;2023-04-24T00:58:35;2.03;;;0.77;;
27740;SDS011;15134;48.768;9.184;2023-04-24T01:01:09;2.97;;;0.60;;
27740;SDS011;15134;48.768;9.184;2023-04-24T01:03:36;2.78;;;0.63;;
27740;SDS011;15134;48.768;9.184;2023-04-24T01:06:03;5.65;;;0.85;;
27740;SDS011;15134;48.768;9.184;2023-04-24T01:08:30;2.67;;;0.60;;
27740;SDS011;15134;48.768;9.184;2023-04-24T01:10:56;2.22;;;0.80;;
27740;SDS011;15134;48.768;9.184;2023-04-24T01:13:23;2.28;;;0.60;;
27740;SDS011;15134;48.768;9.184;2023-04-24T01:15:49;10.75;;;2.85;;
27740;SDS011;15134;48.768;9.184;2023-04-24T01:18:15;2.60;;;0.93;;
27740;SDS011;15134;48.768;9.184;2023-04-24T01:20:41;3.73;;;0.77;;
27740;SDS011;15134;48.768;9.184;2023-04-24T01:23:09;3.63;;;0.60;;
27740;SDS011;15134;48.768;9.184;2023-04-24T01:25:35;2.95;;;0.65;;
27740;SDS011;15134;48.768;9.184;2023-04-24T01:28:01;1.88;;;0.60;;
27740;SDS011;15134;48.768;9.184;2023-04-24T01:30:27;1.67;;;0.60;;
27740;SDS011;15134;48.768;9.184;2023-04-24T01:32:56;2.85;;;0.63;;
27740;SDS011;15134;48.768;9.184;2023-04-24T01:35:23;5.47;;;0.60;;
27740;SDS011;15134;48.768;9.184;2023-04-24T01:37:50;3.30;;;0.75;;
27740;SDS011;15134;48.768;9.184;2023-04-24T01:40:15;1.90;;;0.60;;
27740;SDS011;15134;48.768;9.184;2023-04-24T01:42:41;2.43;;;0.77;;
27740;SDS011;15134;48.768;9.184;2023-04-24T01:45:08;2.60;;;0.80;;
27740;SDS011;15134;48.768;9.184;2023-04-24T01:47:36;2.65;;;0.80;;
27740;SDS011;15134;48.768;9.184;2023-04-24T01:50:03;3.03;;;0.77;;
27740;SDS011;15134;48.768;9.184;2023-04-24T01:52:30;3.33;;;0.80;;
27740;SDS011;15134;48.768;9.184;2023-04-24T01:55:01;3.28;;;0.65;;
27740;SDS011;15134;48.768;9.184;2023-04-24T01:57:29;3.17;;;0.70;;
27740;SDS011;15134;48.768;9.184;2023-04-24T02:02:21;4.65;;;1.80;;
27740;SDS011;15134;48.768;9.184;2023-04-24T02:04:49;1.63;;;0.60;;
27740;SDS011;15134;48.768;9.184;2023-04-24T02:07:16;4.60;;;0.80;;
27740;SDS011;15134;48.768;9.184;2023-04-24T02:09:42;2.20;;;0.70;;
27740;SDS011;15134;48.768;9.184;2023-04-24T02:12:07;2.37;;;0.97;;
27740;SDS011;15134;48.768;9.184;2023-04-24T02:14:33;1.70;;;0.73;;
27740;SDS011;15134;48.768;9.184;2023-04-24T02:16:59;4.13;;;1.00;;
27740;SDS011;15134;48.768;9.184;2023-04-24T02:19:25;4.78;;;0.80;;
27740;SDS011;15134;48.768;9.184;2023-04-24T02:21:51;2.53;;;0.70;;
27740;SDS011;15134;48.768;9.184;2023-04-24T02:24:17;4.23;;;1.37;;
27740;SDS011;15134;48.768;9.184;2023-04-24T02:26:43;3.00;;;0.70;;
27740;SDS011;15134;48.768;9.184;2023-04-24T02:29:08;2.87;;;0.80;;
27740;SDS011;15134;48.768;9.184;2023-04-24T02:31:34;4.03;;;0.87;;
27740;SDS011;15134;48.768;9.184;2023-04-24T02:34:00;5.60;;;0.80;;
27740;SDS011;15134;48.768;9.184;2023-04-24T02:36:26;6.17;;;0.70;;
27740;SDS011;15134;48.768;9.184;2023-04-24T02:38:52;2.40;;;0.60;;
27740;SDS011;15134;48.768;9.184;2023-04-24T02:41:17;1.77;;;0.60;;
27740;SDS011;15134;48.768;9.184;2023-04-24T02:43:43;1.27;;;0.60;;
27740;SDS011;15134;48.768;9.184;2023-04-24T02:46:09;5.07;;;1.07;;
27740;SDS011;15134;48.768;9.184;2023-04-24T02:48:35;3.80;;;1.07;;
27740;SDS011;15134;48.768;9.184;2023-04-24T02:51:01;2.97;;;0.70;;
27740;SDS011;15134;48.768;9.184;2023-04-24T02:53:27;5.23;;;1.50;;
27740;SDS011;15134;48.768;9.184;2023-04-24T02:55:54;2.20;;;0.70;;
27740;SDS011;15134;48.768;9.184;2023-04-24T02:58:20;7.63;;;1.37;;
27740;SDS011;15134;48.768;9.184;2023-04-24T03:00:46;0.93;;;0.43;;
27740;SDS011;15134;48.768;9.184;2023-04-24T03:03:12;2.22;;;0.80;;
27740;SDS011;15134;48.768;9.184;2023-04-24T03:05:40;2.33;;;0.88;;
27740;SDS011;15134;48.768;9.184;2023-04-24T03:08:06;1.90;;;0.70;;
27740;SDS011;15134;48.768;9.184;2023-04-24T03:10:31;4.43;;;0.70;;
27740;SDS011;15134;48.768;9.184;2023-04-24T03:12:57;1.20;;;0.60;;
27740;SDS011;15134;48.768;9.184;2023-04-24T03:15:23;3.37;;;0.70;;
27740;SDS011;15134;48.768;9.184;2023-04-24T03:17:49;3.13;;;0.87;;
27740;SDS011;15134;48.768;9.184;2023-04-24T03:20:15;3.47;;;0.77;;
27740;SDS011;15134;48.768;9.184;2023-04-24T03:22:41;3.05;;;0.60;;
27740;SDS011;15134;48.768;9.184;2023-04-24T03:25:07;2.33;;;0.90;;
27740;SDS011;15134;48.768;9.184;2023-04-24T03:30:04;2.35;;;0.50;;
27740;SDS011;15134;48.768;9.184;2023-04-24T03:32:40;2.55;;;0.80;;
27740;SDS011;15134;48.768;9.184;2023-04-24T03:35:08;3.47;;;0.80;;
27740;SDS011;15134;48.768;9.184;2023-04-24T03:37:34;2.65;;;0.80;;
27740;SDS011;15134;48.768;9.184;2023-04-24T03:40:18;3.42;;;0.82;;
27740;SDS011;15134;48.768;9.184;2023-04-24T03:42:44;1.70;;;0.70;;
27740;SDS011;15134;48.768;9.184;2023-04-24T03:45:10;3.70;;;1.00;;
27740;SDS011;15134;48.768;9.184;2023-04-24T03:47:38;2.63;;;0.70;;
27740;SDS011;15134;48.768;9.184;2023-04-24T03:50:05;2.95;;;0.75;;
27740;SDS011;15134;48.768;9.184;2023-04-24T03:52:32;2.63;;;0.55;;
27740;SDS011;15134;48.768;9.184;2023-04-24T03:54:57;2.47;;;0.47;;
27740;SDS011;15134;48.768;9.184;2023-04-24T03:57:24;1.50;;;0.60;;
27740;SDS011;15134;48.768;9.184;2023-04-24T04:00:10;3.10;;;0.52;;
27740;SDS011;15134;48.768;9.184;2023-04-24T04:02:39;2.05;;;0.50;;
27740;SDS011;15134;48.768;9.184;2023-04-24T04:05:07;1.25;;;0.50;;
27740;SDS011;15134;48.768;9.184;2023-04-24T04:07:33;1.95;;;0.60;;
27740;SDS011;15134;48.768;9.184;2023-04-24T04:09:59;2.90;;;0.70;;
27740;SDS011;15134;48.768;9.184;2023-04-24T04:12:25;1.87;;;0.60;;
27740;SDS011;15134;48.768;9.184;2023-04-24T04:14:50;0.90;;;0.43;;
27740;SDS011;15134;48.768;9.184;2023-04-24T04:17:17;3.40;;;1.38;;
27740;SDS011;15134;48.768;9.184;2023-04-24T04:19:43;2.92;;;0.60;;
27740;SDS011;15134;48.768;9.184;2023-04-24T04:22:09;2.58;;;0.68;;
27740;SDS011;15134;48.768;9.184;2023-04-24T04:24:43;2.40;;;0.80;;
27740;SDS011;15134;48.768;9.184;2023-04-24T04:27:10;6.63;;;1.42;;
27740;SDS011;15134;48.768;9.184;2023-04-24T04:29:48;4.20;;;1.42;;
27740;SDS011;15134;48.768;9.184;2023-04-24T04:32:15;5.35;;;1.95;;
27740;SDS011;15134;48.768;9.184;2023-04-24T04:34:41;3.88;;;1.00;;
27740;SDS011;15134;48.768;9.184;2023-04-24T04:37:10;1.83;;;0.80;;
27740;SDS011;15134;48.768;9.184;2023-04-24T04:39:52;2.03;;;0.70;;
27740;SDS011;15134;48.768;9.184;2023-04-24T04:42:22;2.85;;;1.38;;
27740;SDS011;15134;48.768;9.184;2023-04-24T04:44:49;2.33;;;0.80;;
27740;SDS011;15134;48.768;9.184;2023-04-24T04:47:18;2.22;;;0.77;;
27740;SDS011;15134;48.768;9.184;2023-04-24T04:49:49;1.90;;;0.80;;
27740;SDS011;15134;48.768;9.184;2023-04-24T04:52:22;2.30;;;0.85;;
27740;SDS011;15134;48.768;9.184;2023-04-24T04:54:54;3.25;;;1.27;;
27740;SDS011;15134;48.768;9.184;2023-04-24T04:57:23;3.20;;;1.13;;
27740;SDS011;15134;48.768;9.184;2023-04-24T04:59:50;2.47;;;1.00;;
27740;SDS011;15134;48.768;9.184;2023-04-24T05:02:25;5.03;;;1.50;;
27740;SDS011;15134;48.768;9.184;2023-04-24T05:04:51;4.40;;;1.13;;
27740;SDS011;15134;48.768;9.184;2023-04-24T05:07:17;2.90;;;1.07;;
27740;SDS011;15134;48.768;9.184;2023-04-24T05:09:47;4.70;;;1.02;;
27740;SDS011;15134;48.768;9.184;2023-04-24T05:12:13;2.03;;;0.90;;
27740;SDS011;15134;48.768;9.184;2023-04-24T05:14:46;2.03;;;0.85;;
27740;SDS011;15134;48.768;9.184;2023-04-24T05:17:12;2.17;;;1.02;;
27740;SDS011;15134;48.768;9.184;2023-04-24T05:19:39;2.35;;;1.10;;
27740;SDS011;15134;48.768;9.184;2023-04-24T05:22:06;2.92;;;1.27;;
27740;SDS011;15134;48.768;9.184;2023-04-24T05:24:35;3.25;;;1.08;;
27740;SDS011;15134;48.768;9.184;2023-04-24T05:27:08;3.90;;;1.42;;
27740;SDS011;15134;48.768;9.184;2023-04-24T05:29:38;3.20;;;1.30;;
27740;SDS011;15134;48.768;9.184;2023-04-24T05:34:31;5.18;;;1.88;;
27740;SDS011;15134;48.768;9.184;2023-04-24T05:36:57;15.98;;;8.05;;
27740;SDS011;15134;48.768;9.184;2023-04-24T05:39:24;12.05;;;4.53;;
27740;SDS011;15134;48.768;9.184;2023-04-24T05:41:51;7.65;;;3.47;;
27740;SDS011;15134;48.768;9.184;2023-04-24T05:44:16;5.70;;;1.97;;
27740;SDS011;15134;48.768;9.184;2023-04-24T05:46:42;5.80;;;2.53;;
27740;SDS011;15134;48.768;9.184;2023-04-24T05:49:09;6.35;;;2.38;;
27740;SDS011;15134;48.768;9.184;2023-04-24T05:51:35;5.07;;;2.03;;
27740;SDS011;15134;48.768;9.184;2023-04-24T05:54:01;12.23;;;6.03;;
27740;SDS011;15134;48.768;9.184;2023-04-24T05:56:28;19.85;;;10.65;;
27740;SDS011;15134;48.768;9.184;2023-04-24T05:58:55;37.97;;;19.05;;
27740;SDS011;15134;48.768;9.184;2023-04-24T06:01:21;19.93;;;9.10;;
27740;SDS011;15134;48.768;9.184;2023-04-24T06:03:55;8.43;;;3.22;;
27740;SDS011;15134;48.768;9.184;2023-04-24T06:06:20;7.63;;;3.80;;
27740;SDS011;15134;48.768;9.184;2023-04-24T06:08:46;11.13;;;6.00;;
27740;SDS011;15134;48.768;9.184;2023-04-24T06:11:12;12.60;;;5.57;;
27740;SDS011;15134;48.768;9.184;2023-04-24T06:13:38;35.90;;;19.97;;
27740;SDS011;15134;48.768;9.184;2023-04-24T06:16:32;60.50;;;32.65;;
27740;SDS011;15134;48.768;9.184;2023-04-24T06:19:04;64.50;;;36.65;;
27740;SDS011;15134;48.768;9.184;2023-04-24T06:21:30;27.67;;;14.47;;
27740;SDS011;15134;48.768;9.184;2023-04-24T06:23:56;40.35;;;18.83;;
27740;SDS011;15134;48.768;9.184;2023-04-24T06:26:23;34.17;;;18.92;;
27740;SDS011;15134;48.768;9.184;2023-04-24T06:28:50;9.52;;;5.20;;
27740;SDS011;15134;48.768;9.184;2023-04-24T06:31:18;5.30;;;2.30;;
27740;SDS011;15134;48.768;9.184;2023-04-24T06:33:43;5.50;;;3.17;;
27740;SDS011;15134;48.768;9.184;2023-04-24T06:36:09;5.07;;;2.47;;
27740;SDS011;15134;48.768;9.184;2023-04-24T06:38:35;4.47;;;1.75;;
27740;SDS011;15134;48.768;9.184;2023-04-24T06:41:02;3.47;;;1.10;;
27740;SDS011;15134;48.768;9.184;2023-04-24T06:43:30;3.28;;;1.00;;
27740;SDS011;15134;48.768;9.184;2023-04-24T06:45:57;2.55;;;1.00;;
27740;SDS011;15134;48.768;9.184;2023-04-24T06:48:23;3.28;;;1.13;;
27740;SDS011;15134;48.768;9.184;2023-04-24T06:50:50;2.20;;;1.00;;
27740;SDS011;15134;48.768;9.184;2023-04-24T06:53:16;4.28;;;0.80;;
27740;SDS011;15134;48.768;9.184;2023-04-24T06:55:42;3.85;;;1.02;;
27740;SDS011;15134;48.768;9.184;2023-04-24T06:58:10;3.25;;;1.20;;
27740;SDS011;15134;48.768;9.184;2023-04-24T07:00:36;2.42;;;1.10;;
27740;SDS011;15134;48.768;9.184;2023-04-24T07:03:01;2.42;;;1.10;;
27740;SDS011;15134;48.768;9.184;2023-04-24T07:05:28;2.05;;;1.00;;
27740;SDS011;15134;48.768;9.184;2023-04-24T07:07:54;2.83;;;0.80;;
27740;SDS011;15134;48.768;9.184;2023-04-24T07:10:20;2.83;;;1.00;;
27740;SDS011;15134;48.768;9.184;2023-04-24T07:12:46;3.15;;;1.17;;
27740;SDS011;15134;48.768;9.184;2023-04-24T07:15:12;3.83;;;1.65;;
27740;SDS011;15134;48.768;9.184;2023-04-24T07:17:38;2.40;;;0.97;;
27740;SDS011;15134;48.768;9.184;2023-04-24T07:20:08;4.13;;;1.30;;
27740;SDS011;15134;48.768;9.184;2023-04-24T07:22:35;2.75;;;1.10;;
27740;SDS011;15134;48.768;9.184;2023-04-24T07:25:02;2.97;;;1.20;;
27740;SDS011;15134;48.768;9.184;2023-04-24T07:27:28;1.88;;;1.00;;
27740;SDS011;15134;48.768;9.184;2023-04-24T07:29:54;4.77;;;1.37;;
27740;SDS011;15134;48.768;9.184;2023-04-24T07:32:19;4.73;;;1.87;;
27740;SDS011;15134;48.768;9.184;2023-04-24T07:34:45;2.63;;;1.10;;
27740;SDS011;15134;48.768;9.184;2023-04-24T07:37:11;2.87;;;1.10;;
27740;SDS011;15134;48.768;9.184;2023-04-24T07:39:37;3.13;;;1.07;;
27740;SDS011;15134;48.768;9.184;2023-04-24T07:42:02;5.23;;;1.30;;
27740;SDS011;15134;48.768;9.184;2023-04-24T07:44:28;2.60;;;1.20;;
27740;SDS011;15134;48.768;9.184;2023-04-24T07:46:54;2.70;;;0.97;;
27740;SDS011;15134;48.768;9.184;2023-04-24T07:49:20;2.40;;;0.90;;
27740;SDS011;15134;48.768;9.184;2023-04-24T07:51:46;1.80;;;0.80;;
27740;SDS011;15134;48.768;9.184;2023-04-24T07:54:12;2.20;;;0.80;;
27740;SDS011;15134;48.768;9.184;2023-04-24T07:56:37;2.10;;;1.00;;
27740;SDS011;15134;48.768;9.184;2023-04-24T07:59:08;2.42;;;0.80;;
27740;SDS011;15134;48.768;9.184;2023-04-24T08:01:35;2.63;;;0.88;;
27740;SDS011;15134;48.768;9.184;2023-04-24T08:04:01;3.55;;;1.17;;
27740;SDS011;15134;48.768;9.184;2023-04-24T08:06:27;3.80;;;0.90;;
27740;SDS011;15134;48.768;9.184;2023-04-24T08:08:57;2.75;;;1.00;;
27740;SDS011;15134;48.768;9.184;2023-04-24T08:11:23;2.72;;;0.90;;
27740;SDS011;15134;48.768;9.184;2023-04-24T08:13:49;3.75;;;0.90;;
27740;SDS011;15134;48.768;9.184;2023-04-24T08:16:15;3.50;;;0.80;;
27740;SDS011;15134;48.768;9.184;2023-04-24T08:18:41;3.43;;;0.90;;
27740;SDS011;15134;48.768;9.184;2023-04-24T08:21:07;1.43;;;0.80;;
27740;SDS011;15134;48.768;9.184;2023-04-24T08:23:33;3.97;;;1.27;;
27740;SDS011;15134;48.768;9.184;2023-04-24T08:25:58;3.15;;;1.15;;
27740;SDS011;15134;48.768;9.184;2023-04-24T08:28:24;2.88;;;0.80;;
27740;SDS011;15134;48.768;9.184;2023-04-24T08:30:51;2.08;;;0.77;;
27740;SDS011;15134;48.768;9.184;2023-04-24T08:33:23;4.53;;;1.67;;
27740;SDS011;15134;48.768;9.184;2023-04-24T08:35:49;6.85;;;1.50;;
27740;SDS011;15134;48.768;9.184;2023-04-24T08:38:15;4.72;;;0.90;;
27740;SDS011;15134;48.768;9.184;2023-04-24T08:40:42;3.22;;;0.80;;
27740;SDS011;15134;48.768;9.184;2023-04-24T08:43:08;3.15;;;0.90;;
27740;SDS011;15134;48.768;9.184;2023-04-24T08:45:35;4.28;;;0.88;;
27740;SDS011;15134;48.768;9.184;2023-04-24T08:50:27;2.53;;;1.08;;
27740;SDS011;15134;48.768;9.184;2023-04-24T08:52:54;3.08;;;0.98;;
27740;SDS011;15134;48.768;9.184;2023-04-24T08:55:22;4.25;;;1.35;;
27740;SDS011;15134;48.768;9.184;2023-04-24T08:57:50;2.38;;;1.15;;
27740;SDS011;15134;48.768;9.184;2023-04-24T09:00:21;4.80;;;1.23;;
27740;SDS011;15134;48.768;9.184;2023-04-24T09:02:48;4.53;;;1.25;;
27740;SDS011;15134;48.768;9.184;2023-04-24T09:05:16;3.50;;;1.17;;
27740;SDS011;15134;48.768;9.184;2023-04-24T09:07:44;5.22;;;1.40;;
27740;SDS011;15134;48.768;9.184;2023-04-24T09:10:13;3.45;;;1.10;;
27740;SDS011;15134;48.768;9.184;2023-04-24T09:12:39;2.72;;;1.05;;
27740;SDS011;15134;48.768;9.184;2023-04-24T09:15:05;4.07;;;1.17;;
27740;SDS011;15134;48.768;9.184;2023-04-24T09:17:33;4.70;;;1.30;;
27740;SDS011;15134;48.768;9.184;2023-04-24T09:20:00;4.10;;;1.30;;
27740;SDS011;15134;48.768;9.184;2023-04-24T09:22:29;3.95;;;1.58;;
27740;SDS011;15134;48.768;9.184;2023-04-24T09:25:02;2.95;;;1.30;;
27740;SDS011;15134;48.768;9.184;2023-04-24T09:27:30;3.22;;;1.40;;
27740;SDS011;15134;48.768;9.184;2023-04-24T09:29:57;2.90;;;1.20;;
27740;SDS011;15134;48.768;9.184;2023-04-24T09:35:12;4.55;;;1.30;;
27740;SDS011;15134;48.768;9.184;2023-04-24T09:37:38;3.38;;;1.38;;
27740;SDS011;15134;48.768;9.184;2023-04-24T09:42:43;4.05;;;1.20;;
27740;SDS011;15134;48.768;9.184;2023-04-24T09:45:17;3.65;;;1.23;;
27740;SDS011;15134;48.768;9.184;2023-04-24T09:47:43;3.90;;;1.42;;
27740;SDS011;15134;48.768;9.184;2023-04-24T09:50:10;3.15;;;1.45;;
27740;SDS011;15134;48.768;9.184;2023-04-24T09:52:39;7.20;;;1.25;;
27740;SDS011;15134;48.768;9.184;2023-04-24T09:55:17;2.60;;;1.20;;
27740;SDS011;15134;48.768;9.184;2023-04-24T09:57:51;4.40;;;1.65;;
27740;SDS011;15134;48.768;9.184;2023-04-24T10:00:22;3.10;;;1.35;;
27740;SDS011;15134;48.768;9.184;2023-04-24T10:03:04;4.00;;;1.30;;
27740;SDS011;15134;48.768;9.184;2023-04-24T10:05:34;2.35;;;0.90;;
27740;SDS011;15134;48.768;9.184;2023-04-24T10:08:11;3.42;;;1.23;;
27740;SDS011;15134;48.768;9.184;2023-04-24T10:10:39;3.97;;;1.05;;
27740;SDS011;15134;48.768;9.184;2023-04-24T10:13:10;4.03;;;1.10;;
27740;SDS011;15134;48.768;9.184;2023-04-24T10:15:38;2.80;;;1.08;;
27740;SDS011;15134;48.768;9.184;2023-04-24T10:18:05;3.72;;;1.20;;
27740;SDS011;15134;48.768;9.184;2023-04-24T10:20:32;3.00;;;1.17;;
27740;SDS011;15134;48.768;9.184;2023-04-24T10:23:00;1.88;;;0.93;;
27740;SDS011;15134;48.768;9.184;2023-04-24T10:25:27;2.57;;;0.90;;
27740;SDS011;15134;48.768;9.184;2023-04-24T10:27:55;2.13;;;0.85;;
27740;SDS011;15134;48.768;9.184;2023-04-24T10:30:24;2.70;;;0.93;;
27740;SDS011;15134;48.768;9.184;2023-04-24T10:32:52;7.45;;;3.30;;
27740;SDS011;15134;48.768;9.184;2023-04-24T10:37:52;6.03;;;2.75;;
27740;SDS011;15134;48.768;9.184;2023-04-24T10:40:30;5.95;;;2.85;;
27740;SDS011;15134;48.768;9.184;2023-04-24T10:43:06;3.80;;;1.35;;
27740;SDS011;15134;48.768;9.184;2023-04-24T10:45:34;4.05;;;1.50;;
27740;SDS011;15134;48.768;9.184;2023-04-24T10:48:09;4.27;;;1.37;;
27740;SDS011;15134;48.768;9.184;2023-04-24T10:50:42;3.67;;;1.40;;
27740;SDS011;15134;48.768;9.184;2023-04-24T10:53:16;2.70;;;1.13;;
27740;SDS011;15134;48.768;9.184;2023-04-24T10:55:45;6.15;;;1.23;;
27740;SDS011;15134;48.768;9.184;2023-04-24T10:58:11;2.58;;;1.15;;
27740;SDS011;15134;48.768;9.184;2023-04-24T11:00:41;2.83;;;1.00;;
27740;SDS011;15134;48.768;9.184;2023-04-24T11:03:12;5.22;;;2.05;;
27740;SDS011;15134;48.768;9.184;2023-04-24T11:05:59;5.57;;;1.70;;
27740;SDS011;15134;48.768;9.184;2023-04-24T11:08:40;6.30;;;2.17;;
27740;SDS011;15134;48.768;9.184;2023-04-24T11:11:09;5.20;;;1.67;;
27740;SDS011;15134;48.768;9.184;2023-04-24T11:19:04;2.03;;;0.88;;
27740;SDS011;15134;48.768;9.184;2023-04-24T11:27:18;4.97;;;1.10;;
27740;SDS011;15134;48.768;9.184;2023-04-24T11:32:30;2.90;;;1.10;;
27740;SDS011;15134;48.768;9.184;2023-04-24T11:35:02;5.28;;;1.73;;
27740;SDS011;15134;48.768;9.184;2023-04-24T11:37:59;3.28;;;1.23;;
27740;SDS011;15134;48.768;9.184;2023-04-24T11:40:28;2.95;;;1.30;;
27740;SDS011;15134;48.768;9.184;2023-04-24T11:42:54;2.83;;;1.17;;
27740;SDS011;15134;48.768;9.184;2023-04-24T11:45:25;3.05;;;1.30;;
27740;SDS011;15134;48.768;9.184;2023-04-24T11:47:52;2.80;;;1.10;;
27740;SDS011;15134;48.768;9.184;2023-04-24T11:50:19;4.00;;;1.10;;
27740;SDS011;15134;48.768;9.184;2023-04-24T11:52:47;3.25;;;1.13;;
27740;SDS011;15134;48.768;9.184;2023-04-24T11:57:43;2.73;;;1.03;;
27740;SDS011;15134;48.768;9.184;2023-04-24T12:00:31;2.10;;;1.10;;
27740;SDS011;15134;48.768;9.184;2023-04-24T12:03:19;2.95;;;1.13;;
27740;SDS011;15134;48.768;9.184;2023-04-24T12:05:44;2.88;;;1.10;;
27740;SDS011;15134;48.768;9.184;2023-04-24T12:08:10;3.43;;;1.03;;
27740;SDS011;15134;48.768;9.184;2023-04-24T12:10:36;2.07;;;1.00;;
27740;SDS011;15134;48.768;9.184;2023-04-24T12:13:02;2.87;;;1.10;;
27740;SDS011;15134;48.768;9.184;2023-04-24T12:15:27;3.53;;;1.13;;
27740;SDS011;15134;48.768;9.184;2023-04-24T12:17:55;3.33;;;1.20;;
27740;SDS011;15134;48.768;9.184;2023-04-24T12:20:31;3.72;;;1.10;;
27740;SDS011;15134;48.768;9.184;2023-04-24T12:22:58;3.60;;;1.17;;
27740;SDS011;15134;48.768;9.184;2023-04-24T12:25:26;2.45;;;1.00;;
27740;SDS011;15134;48.768;9.184;2023-04-24T12:27:54;2.70;;;1.10;;
27740;SDS011;15134;48.768;9.184;2023-04-24T12:30:21;4.05;;;1.10;;
27740;SDS011;15134;48.768;9.184;2023-04-24T12:32:53;3.90;;;1.20;;
27740;SDS011;15134;48.768;9.184;2023-04-24T12:35:20;2.35;;;1.30;;
27740;SDS011;15134;48.768;9.184;2023-04-24T12:37:48;3.58;;;1.40;;
27740;SDS011;15134;48.768;9.184;2023-04-24T12:40:15;4.82;;;1.30;;
27740;SDS011;15134;48.768;9.184;2023-04-24T12:42:43;4.00;;;1.50;;
27740;SDS011;15134;48.768;9.184;2023-04-24T12:45:09;3.72;;;1.30;;
27740;SDS011;15134;48.768;9.184;2023-04-24T12:47:37;3.70;;;1.17;;
27740;SDS011;15134;48.768;9.184;2023-04-24T12:50:04;4.63;;;1.10;;
27740;SDS011;15134;48.768;9.184;2023-04-24T12:52:31;3.22;;;1.35;;
27740;SDS011;15134;48.768;9.184;2023-04-24T12:54:58;2.50;;;1.10;;
27740;SDS011;15134;48.768;9.184;2023-04-24T12:57:25;2.92;;;1.40;;
27740;SDS011;15134;48.768;9.184;2023-04-24T12:59:56;4.28;;;1.38;;
27740;SDS011;15134;48.768;9.184;2023-04-24T13:02:23;3.63;;;0.90;;
27740;SDS011;15134;48.768;9.184;2023-04-24T13:04:50;2.20;;;0.85;;
27740;SDS011;15134;48.768;9.184;2023-04-24T13:07:16;3.17;;;0.73;;
27740;SDS011;15134;48.768;9.184;2023-04-24T13:09:43;2.10;;;1.00;;
27740;SDS011;15134;48.768;9.184;2023-04-24T13:12:10;2.70;;;1.10;;
27740;SDS011;15134;48.768;9.184;2023-04-24T13:14:37;2.42;;;1.10;;
27740;SDS011;15134;48.768;9.184;2023-04-24T13:17:03;3.15;;;1.27;;
27740;SDS011;15134;48.768;9.184;2023-04-24T13:22:00;2.95;;;1.40;;
27740;SDS011;15134;48.768;9.184;2023-04-24T13:24:26;3.78;;;1.10;;
27740;SDS011;15134;48.768;9.184;2023-04-24T13:26:52;3.07;;;1.10;;
27740;SDS011;15134;48.768;9.184;2023-04-24T13:29:18;2.95;;;1.27;;
27740;SDS011;15134;48.768;9.184;2023-04-24T13:31:45;3.88;;;1.45;;
27740;SDS011;15134;48.768;9.184;2023-04-24T13:34:12;2.97;;;1.33;;
27740;SDS011;15134;48.768;9.184;2023-04-24T13:36:38;2.72;;;1.13;;
27740;SDS011;15134;48.768;9.184;2023-04-24T13:39:04;2.57;;;1.03;;
27740;SDS011;15134;48.768;9.184;2023-04-24T13:41:34;3.58;;;1.38;;
27740;SDS011;15134;48.768;9.184;2023-04-24T13:44:01;2.55;;;1.40;;
27740;SDS011;15134;48.768;9.184;2023-04-24T13:46:27;4.22;;;1.60;;
27740;SDS011;15134;48.768;9.184;2023-04-24T13:48:53;3.43;;;1.30;;
27740;SDS011;15134;48.768;9.184;2023-04-24T13:51:19;3.67;;;1.50;;
27740;SDS011;15134;48.768;9.184;2023-04-24T13:53:45;5.33;;;1.23;;
27740;SDS011;15134;48.768;9.184;2023-04-24T13:56:11;2.70;;;1.17;;
27740;SDS011;15134;48.768;9.184;2023-04-24T13:58:38;3.25;;;1.30;;
27740;SDS011;15134;48.768;9.184;2023-04-24T14:01:03;3.85;;;1.08;;
27740;SDS011;15134;48.768;9.184;2023-04-24T14:03:29;2.63;;;1.00;;
27740;SDS011;15134;48.768;9.184;2023-04-24T14:05:55;2.83;;;1.47;;
27740;SDS011;15134;48.768;9.184;2023-04-24T14:08:21;2.53;;;1.20;;
27740;SDS011;15134;48.768;9.184;2023-04-24T14:10:47;2.60;;;1.20;;
27740;SDS011;15134;48.768;9.184;2023-04-24T14:13:13;4.13;;;1.30;;
27740;SDS011;15134;48.768;9.184;2023-04-24T14:15:39;3.20;;;1.20;;
27740;SDS011;15134;48.768;9.184;2023-04-24T14:18:05;2.90;;;1.37;;
27740;SDS011;15134;48.768;9.184;2023-04-24T14:20:31;2.83;;;1.30;;
27740;SDS011;15134;48.768;9.184;2023-04-24T14:22:57;3.67;;;1.33;;
27740;SDS011;15134;48.768;9.184;2023-04-24T14:25:25;3.20;;;1.60;;
27740;SDS011;15134;48.768;9.184;2023-04-24T14:27:51;3.93;;;1.77;;
27740;SDS011;15134;48.768;9.184;2023-04-24T14:30:17;3.57;;;1.40;;
27740;SDS011;15134;48.768;9.184;2023-04-24T14:32:44;2.22;;;1.13;;
27740;SDS011;15134;48.768;9.184;2023-04-24T14:35:09;3.07;;;1.30;;
27740;SDS011;15134;48.768;9.184;2023-04-24T14:37:35;3.07;;;1.30;;
27740;SDS011;15134;48.768;9.184;2023-04-24T14:40:02;3.70;;;1.13;;
27740;SDS011;15134;48.768;9.184;2023-04-24T14:42:30;2.58;;;1.20;;
27740;SDS011;15134;48.768;9.184;2023-04-24T14:44:56;3.03;;;1.20;;
27740;SDS011;15134;48.768;9.184;2023-04-24T14:47:21;2.23;;;1.00;;
27740;SDS011;15134;48.768;9.184;2023-04-24T14:49:47;3.80;;;1.37;;
27740;SDS011;15134;48.768;9.184;2023-04-24T14:52:13;4.80;;;1.52;;
27740;SDS011;15134;48.768;9.184;2023-04-24T14:54:39;3.30;;;1.40;;
27740;SDS011;15134;48.768;9.184;2023-04-24T14:57:05;3.00;;;1.50;;
27740;SDS011;15134;48.768;9.184;2023-04-24T14:59:31;2.97;;;1.40;;
27740;SDS011;15134;48.768;9.184;2023-04-24T15:01:57;4.27;;;1.67;;
27740;SDS011;15134;48.768;9.184;2023-04-24T15:04:29;4.07;;;1.95;;
27740;SDS011;15134;48.768;9.184;2023-04-24T15:06:56;6.00;;;3.00;;
27740;SDS011;15134;48.768;9.184;2023-04-24T15:09:22;7.00;;;2.93;;
27740;SDS011;15134;48.768;9.184;2023-04-24T15:11:49;7.80;;;3.97;;
27740;SDS011;15134;48.768;9.184;2023-04-24T15:14:16;21.55;;;11.98;;
27740;SDS011;15134;48.768;9.184;2023-04-24T15:19:08;5.72;;;2.55;;
27740;SDS011;15134;48.768;9.184;2023-04-24T15:21:35;5.90;;;2.00;;
27740;SDS011;15134;48.768;9.184;2023-04-24T15:24:01;5.20;;;2.22;;
27740;SDS011;15134;48.768;9.184;2023-04-24T15:26:27;6.13;;;2.70;;
27740;SDS011;15134;48.768;9.184;2023-04-24T15:28:52;4.23;;;2.30;;